createdAt,value
2022-09-25T00:02:09.809Z,16.60
2022-09-25T00:07:12.719Z,15.80
2022-09-25T00:12:15.632Z,16.40
2022-09-25T00:17:18.472Z,17.60
2022-09-25T00:22:24.953Z,17.00
2022-09-25T00:27:27.852Z,18.00
2022-09-25T00:32:31.042Z,17.60
2022-09-25T00:37:35.572Z,16.80
2022-09-25T00:42:38.514Z,16.80
2022-09-25T00:48:10.761Z,17.10
2022-09-25T00:53:38.464Z,16.60
2022-09-25T00:58:42.312Z,16.90
2022-09-25T01:03:46.470Z,17.00
2022-09-25T01:08:50.042Z,17.80
2022-09-25T01:13:55.660Z,17.50
2022-09-25T01:19:14.150Z,16.60
2022-09-25T01:24:25.570Z,17.10
2022-09-25T01:29:36.967Z,16.60
2022-09-25T01:34:56.758Z,16.10
2022-09-25T01:40:33.529Z,16.50
2022-09-25T01:45:59.693Z,17.30
2022-09-25T01:51:08.415Z,17.40
2022-09-25T01:56:20.523Z,16.50
2022-09-25T02:01:29.361Z,17.10
2022-09-25T02:06:33.347Z,16.80
2022-09-25T02:11:42.924Z,17.30
2022-09-25T02:16:50.271Z,16.80
2022-09-25T02:22:05.512Z,17.10
2022-09-25T02:27:08.348Z,17.60
2022-09-25T02:32:17.417Z,17.40
2022-09-25T02:37:20.364Z,17.40
2022-09-25T02:42:55.487Z,16.90
2022-09-25T02:48:32.481Z,16.30
2022-09-25T02:53:41.987Z,17.30
2022-09-25T02:58:51.107Z,16.50
2022-09-25T03:03:57.569Z,17.00
2022-09-25T03:09:02.667Z,16.80
2022-09-25T03:14:06.105Z,17.40
2022-09-25T03:19:09.084Z,17.00
2022-09-25T03:24:12.185Z,17.70
2022-09-25T03:29:17.456Z,17.80
2022-09-25T03:34:21.601Z,17.90
2022-09-25T03:39:24.493Z,17.60
2022-09-25T03:44:27.335Z,17.70
2022-09-25T03:49:30.130Z,17.10
2022-09-25T03:54:32.935Z,17.30
2022-09-25T03:59:35.877Z,17.50
2022-09-25T04:04:39.008Z,16.60
2022-09-25T04:09:41.888Z,16.70
2022-09-25T04:14:46.071Z,16.70
2022-09-25T04:19:49.382Z,17.00
2022-09-25T04:24:52.530Z,16.60
2022-09-25T04:29:55.547Z,15.90
2022-09-25T04:34:58.641Z,16.60
2022-09-25T04:40:01.887Z,16.10
2022-09-25T04:45:05.028Z,17.10
2022-09-25T04:50:08.386Z,16.90
2022-09-25T04:55:11.404Z,16.90
2022-09-25T05:00:18.775Z,15.70
2022-09-25T05:05:21.844Z,16.70
2022-09-25T05:10:27.850Z,16.40
2022-09-25T05:15:33.230Z,17.10
2022-09-25T05:20:36.350Z,17.00
2022-09-25T05:25:39.257Z,16.70
2022-09-25T05:30:43.774Z,16.60
2022-09-25T05:35:46.976Z,15.80
2022-09-25T05:40:50.295Z,18.00
2022-09-25T05:45:54.994Z,15.80
2022-09-25T05:50:58.689Z,16.20
2022-09-25T05:56:03.774Z,17.30
2022-09-25T06:01:07.177Z,16.70
2022-09-25T06:06:10.441Z,17.20
2022-09-25T06:11:13.338Z,15.90
2022-09-25T06:16:19.662Z,18.00
2022-09-25T06:21:22.707Z,18.20
2022-09-25T06:26:26.158Z,19.70
2022-09-25T06:31:29.113Z,19.20
2022-09-25T06:36:33.278Z,18.50
2022-09-25T06:41:36.824Z,19.50
2022-09-25T06:46:39.775Z,19.30
2022-09-25T06:51:42.787Z,19.10
2022-09-25T06:56:49.969Z,18.50
2022-09-25T07:01:53.068Z,15.00
2022-09-25T07:06:58.613Z,21.60
2022-09-25T07:12:01.829Z,17.60
2022-09-25T07:17:04.753Z,17.80
2022-09-25T07:22:07.649Z,18.00
2022-09-25T07:27:10.510Z,19.40
2022-09-25T07:32:13.322Z,19.10
2022-09-25T07:37:17.029Z,18.80
2022-09-25T07:42:19.914Z,18.10
2022-09-25T07:47:22.791Z,18.60
2022-09-25T07:52:25.727Z,18.50
2022-09-25T07:57:28.628Z,17.60
2022-09-25T08:02:32.002Z,15.80
2022-09-25T08:07:34.934Z,16.10
2022-09-25T08:12:37.809Z,15.50
2022-09-25T08:17:41.411Z,15.40
2022-09-25T08:22:44.233Z,11.90
2022-09-25T08:27:47.187Z,11.50
2022-09-25T08:32:50.536Z,10.10
2022-09-25T08:37:53.890Z,8.30
2022-09-25T08:42:57.597Z,8.90
2022-09-25T08:48:19.761Z,8.90
2022-09-25T08:53:26.378Z,10.00
2022-09-25T08:58:32.200Z,12.20
2022-09-25T09:03:46.272Z,11.90
2022-09-25T09:09:14.397Z,11.00
2022-09-25T09:14:20.680Z,9.80
2022-09-25T09:19:23.678Z,10.60
2022-09-25T09:24:53.866Z,9.00
2022-09-25T09:30:23.982Z,12.30
2022-09-25T09:35:52.441Z,12.90
2022-09-25T09:41:31.087Z,12.90
2022-09-25T09:46:57.461Z,10.70
2022-09-25T09:52:11.369Z,9.10
2022-09-25T09:57:26.664Z,8.80
2022-09-25T10:02:51.294Z,10.00
2022-09-25T10:07:54.496Z,10.00
2022-09-25T10:13:04.069Z,9.80
2022-09-25T10:18:09.462Z,9.70
2022-09-25T10:23:33.751Z,9.30
2022-09-25T10:28:36.925Z,9.10
2022-09-25T10:33:39.859Z,7.90
2022-09-25T10:38:53.446Z,7.90
2022-09-25T10:44:02.545Z,8.20
2022-09-25T10:54:43.654Z,6.90
2022-09-25T10:59:52.228Z,8.10
2022-09-25T11:04:57.171Z,8.00
2022-09-25T11:10:00.617Z,8.50
2022-09-25T11:15:08.977Z,8.30
2022-09-25T11:20:30.233Z,8.40
2022-09-25T11:25:48.749Z,7.60
2022-09-25T11:31:22.626Z,8.00
2022-09-25T11:36:31.912Z,7.30
2022-09-25T11:41:43.948Z,7.80
2022-09-25T11:47:11.859Z,7.40
2022-09-25T11:52:37.360Z,7.90
2022-09-25T11:57:56.610Z,8.00
2022-09-25T12:03:20.531Z,8.40
2022-09-25T12:08:26.937Z,8.80
2022-09-25T12:13:41.598Z,8.10
2022-09-25T12:19:03.205Z,9.10
2022-09-25T12:24:17.876Z,9.30
2022-09-25T12:29:26.191Z,8.60
2022-09-25T12:34:34.602Z,8.80
2022-09-25T12:39:44.849Z,7.60
2022-09-25T12:45:02.037Z,7.90
2022-09-25T12:50:17.008Z,7.30
2022-09-25T12:55:26.795Z,7.90
2022-09-25T13:00:33.026Z,9.00
2022-09-25T13:05:50.359Z,8.40
2022-09-25T13:11:02.456Z,8.90
2022-09-25T13:16:05.806Z,8.20
2022-09-25T13:21:26.152Z,8.40
2022-09-25T13:26:30.362Z,8.10
2022-09-25T13:31:37.169Z,8.90
2022-09-25T13:36:53.587Z,8.20
2022-09-25T13:41:57.008Z,7.70
2022-09-25T13:47:22.089Z,7.50
2022-09-25T13:52:36.868Z,8.50
2022-09-25T13:57:58.441Z,8.70
2022-09-25T14:03:03.282Z,8.40
2022-09-25T14:08:15.973Z,8.10
2022-09-25T14:13:25.404Z,8.50
2022-09-25T14:18:44.023Z,8.30
2022-09-25T14:23:52.306Z,8.90
2022-09-25T14:28:57.297Z,8.40
2022-09-25T14:34:41.338Z,7.90
2022-09-25T14:40:02.338Z,10.30
2022-09-25T14:45:34.936Z,8.90
2022-09-25T14:50:45.805Z,9.10
2022-09-25T14:55:53.094Z,8.70
2022-09-25T15:01:02.087Z,8.00
2022-09-25T15:06:05.136Z,8.40
2022-09-25T15:11:16.385Z,8.50
2022-09-25T15:16:44.034Z,8.20
2022-09-25T15:21:47.695Z,9.10
2022-09-25T15:27:03.078Z,9.30
2022-09-25T15:32:06.621Z,9.00
2022-09-25T15:37:29.479Z,9.70
2022-09-25T15:42:33.124Z,9.00
2022-09-25T15:47:35.907Z,9.90
2022-09-25T15:52:39.305Z,10.10
2022-09-25T15:57:42.443Z,11.00
2022-09-25T16:03:17.333Z,10.50
2022-09-25T16:08:36.921Z,11.30
2022-09-25T16:13:43.750Z,10.70
2022-09-25T16:18:47.075Z,10.20
2022-09-25T16:24:07.557Z,11.70
2022-09-25T16:29:11.521Z,11.40
2022-09-25T16:34:39.108Z,11.20
2022-09-25T16:39:43.680Z,11.10
2022-09-25T16:44:47.236Z,12.20
2022-09-25T16:49:50.549Z,12.10
2022-09-25T16:54:57.023Z,11.40
2022-09-25T17:00:00.018Z,11.00
2022-09-25T17:05:11.151Z,12.10
2022-09-25T17:10:16.508Z,11.90
2022-09-25T17:15:27.628Z,11.70
2022-09-25T17:20:31.316Z,11.30
2022-09-25T17:25:45.857Z,12.20
2022-09-25T17:30:48.822Z,12.80
2022-09-25T17:36:04.196Z,12.40
2022-09-25T17:41:34.125Z,13.10
2022-09-25T17:46:37.380Z,12.20
2022-09-25T17:51:40.922Z,12.90
2022-09-25T17:56:45.473Z,12.90
2022-09-25T18:01:48.459Z,13.50
2022-09-25T18:06:52.192Z,13.00
2022-09-25T18:11:55.187Z,13.70
2022-09-25T18:16:58.307Z,14.40
2022-09-25T18:22:21.897Z,13.70
2022-09-25T18:27:27.805Z,13.80
2022-09-25T18:32:31.785Z,14.70
2022-09-25T18:37:35.131Z,15.70
2022-09-25T18:42:38.440Z,14.50
2022-09-25T18:47:42.540Z,14.90
2022-09-25T18:52:45.668Z,15.30
2022-09-25T18:57:48.667Z,12.00
2022-09-25T19:02:51.657Z,13.80
2022-09-25T19:07:54.963Z,14.30
2022-09-25T19:12:57.929Z,15.70
2022-09-25T19:18:00.792Z,14.80
2022-09-25T19:23:03.760Z,15.10
2022-09-25T19:28:07.951Z,15.10
2022-09-25T19:33:10.858Z,14.40
2022-09-25T19:38:13.769Z,14.60
2022-09-25T19:43:16.829Z,14.40
2022-09-25T19:48:20.981Z,14.90
2022-09-25T19:53:23.852Z,15.20
2022-09-25T19:58:26.723Z,15.20
2022-09-25T20:03:29.934Z,16.00
2022-09-25T20:08:33.413Z,16.80
2022-09-25T20:13:36.336Z,16.90
2022-09-25T20:18:39.480Z,16.80
2022-09-25T20:23:42.572Z,17.40
2022-09-25T20:28:46.549Z,18.70
2022-09-25T20:33:49.561Z,20.90
2022-09-25T20:38:54.134Z,21.10
2022-09-25T20:43:58.069Z,19.40
2022-09-25T20:49:02.376Z,19.50
2022-09-25T20:54:07.550Z,19.60
2022-09-25T20:59:11.387Z,19.50
2022-09-25T21:04:18.271Z,20.10
2022-09-25T21:09:24.122Z,19.00
2022-09-25T21:14:28.571Z,18.90
2022-09-25T21:19:31.947Z,18.50
2022-09-25T21:24:35.946Z,18.20
2022-09-25T21:29:39.251Z,18.50
2022-09-25T21:34:42.185Z,18.90
2022-09-25T21:39:45.025Z,18.90
2022-09-25T21:44:48.110Z,19.40
2022-09-25T21:49:51.112Z,18.50
2022-09-25T21:54:54.721Z,17.80
2022-09-25T21:59:57.564Z,18.40
2022-09-25T22:05:02.178Z,18.90
2022-09-25T22:10:07.138Z,19.10
2022-09-25T22:15:10.437Z,19.30
2022-09-25T22:20:13.729Z,19.20
2022-09-25T22:25:16.700Z,20.10
2022-09-25T22:30:19.786Z,18.10
2022-09-25T22:35:22.725Z,19.40
2022-09-25T22:40:25.653Z,17.90
2022-09-25T22:45:29.377Z,18.40
2022-09-25T22:50:32.245Z,19.50
2022-09-25T22:55:35.094Z,18.40
2022-09-25T23:00:42.983Z,19.50
2022-09-25T23:05:47.553Z,17.80
2022-09-25T23:11:06.638Z,18.00
2022-09-25T23:16:12.948Z,17.90
2022-09-25T23:21:16.856Z,18.40
2022-09-25T23:26:20.392Z,19.60
2022-09-25T23:31:27.147Z,19.50
2022-09-25T23:36:32.705Z,18.90
2022-09-25T23:41:39.838Z,18.60
2022-09-25T23:46:46.231Z,18.10
2022-09-25T23:51:51.826Z,18.00
2022-09-25T23:56:57.765Z,18.10
